sensor_id;sensor_type;location;lat;lon;timestamp;temperature;humidity
5631;DHT22;2837;50.990;7.124;2023-04-24T05:01:59;12.30;99.90
5631;DHT22;2837;50.990;7.124;2023-04-24T05:04:25;12.60;99.90
5631;DHT22;2837;50.990;7.124;2023-04-24T05:06:50;13.30;99.90
5631;DHT22;2837;50.990;7.124;2023-04-24T05:09:17;12.30;99.90
5631;DHT22;2837;50.990;7.124;2023-04-24T05:11:43;12.30;99.90
5631;DHT22;2837;50.990;7.124;2023-04-24T05:14:09;12.30;99.90
5631;DHT22;2837;50.990;7.124;2023-04-24T05:16:34;12.20;99.90
5631;DHT22;2837;50.990;7.124;2023-04-24T05:19:00;12.50;99.90
5631;DHT22;2837;50.990;7.124;2023-04-24T05:21:25;12.80;99.90
5631;DHT22;2837;50.990;7.124;2023-04-24T05:23:52;12.20;99.90
5631;DHT22;2837;50.990;7.124;2023-04-24T05:26:17;12.60;99.90
5631;DHT22;2837;50.990;7.124;2023-04-24T05:28:43;12.50;99.90
5631;DHT22;2837;50.990;7.124;2023-04-24T05:31:08;12.80;99.90
5631;DHT22;2837;50.990;7.124;2023-04-24T05:33:34;12.20;99.90
5631;DHT22;2837;50.990;7.124;2023-04-24T05:36:00;12.70;99.90
5631;DHT22;2837;50.990;7.124;2023-04-24T05:38:25;13.40;99.90
5631;DHT22;2837;50.990;7.124;2023-04-24T05:40:51;12.10;99.90
5631;DHT22;2837;50.990;7.124;2023-04-24T05:43:16;12.80;99.90
5631;DHT22;2837;50.990;7.124;2023-04-24T05:45:42;12.70;99.90
5631;DHT22;2837;50.990;7.124;2023-04-24T05:48:07;12.20;99.90
5631;DHT22;2837;50.990;7.124;2023-04-24T05:50:33;12.20;99.90
5631;DHT22;2837;50.990;7.124;2023-04-24T05:52:59;12.20;99.90
5631;DHT22;2837;50.990;7.124;2023-04-24T05:55:25;12.20;99.90
5631;DHT22;2837;50.990;7.124;2023-04-24T05:57:51;12.20;99.90
5631;DHT22;2837;50.990;7.124;2023-04-24T06:00:16;12.10;99.90
5631;DHT22;2837;50.990;7.124;2023-04-24T06:02:44;12.10;99.90
5631;DHT22;2837;50.990;7.124;2023-04-24T06:05:10;12.00;99.90
5631;DHT22;2837;50.990;7.124;2023-04-24T06:07:36;12.60;99.90
5631;DHT22;2837;50.990;7.124;2023-04-24T06:10:02;12.20;99.90
5631;DHT22;2837;50.990;7.124;2023-04-24T06:12:27;11.90;99.90
5631;DHT22;2837;50.990;7.124;2023-04-24T06:14:53;11.90;99.90
5631;DHT22;2837;50.990;7.124;2023-04-24T06:17:20;11.90;99.90
5631;DHT22;2837;50.990;7.124;2023-04-24T06:19:46;11.90;99.90
5631;DHT22;2837;50.990;7.124;2023-04-24T06:22:12;12.70;99.90
5631;DHT22;2837;50.990;7.124;2023-04-24T06:24:39;11.90;99.90
5631;DHT22;2837;50.990;7.124;2023-04-24T06:27:05;11.90;99.90
5631;DHT22;2837;50.990;7.124;2023-04-24T06:29:31;11.90;99.90
5631;DHT22;2837;50.990;7.124;2023-04-24T06:31:56;11.90;99.90
5631;DHT22;2837;50.990;7.124;2023-04-24T06:34:22;11.90;99.90
5631;DHT22;2837;50.990;7.124;2023-04-24T06:36:47;11.90;99.90
5631;DHT22;2837;50.990;7.124;2023-04-24T06:39:13;11.90;99.90
5631;DHT22;2837;50.990;7.124;2023-04-24T06:41:38;11.90;99.90
5631;DHT22;2837;50.990;7.124;2023-04-24T06:44:05;12.00;99.90
5631;DHT22;2837;50.990;7.124;2023-04-24T06:46:30;11.90;99.90
5631;DHT22;2837;50.990;7.124;2023-04-24T06:48:56;11.90;99.90
5631;DHT22;2837;50.990;7.124;2023-04-24T06:51:25;11.90;99.90
5631;DHT22;2837;50.990;7.124;2023-04-24T06:53:53;12.40;99.90
5631;DHT22;2837;50.990;7.124;2023-04-24T06:56:19;12.20;99.90
5631;DHT22;2837;50.990;7.124;2023-04-24T06:58:44;11.90;99.90
5631;DHT22;2837;50.990;7.124;2023-04-24T07:01:10;12.00;99.90
5631;DHT22;2837;50.990;7.124;2023-04-24T07:03:36;11.90;99.90
5631;DHT22;2837;50.990;7.124;2023-04-24T07:06:02;11.90;99.90
5631;DHT22;2837;50.990;7.124;2023-04-24T07:08:28;11.90;99.90
5631;DHT22;2837;50.990;7.124;2023-04-24T07:10:56;11.90;99.90
5631;DHT22;2837;50.990;7.124;2023-04-24T07:13:22;11.90;99.90
5631;DHT22;2837;50.990;7.124;2023-04-24T07:15:48;11.90;99.90
5631;DHT22;2837;50.990;7.124;2023-04-24T07:18:16;11.80;99.90
5631;DHT22;2837;50.990;7.124;2023-04-24T07:20:41;11.80;99.90
5631;DHT22;2837;50.990;7.124;2023-04-24T07:23:07;11.80;99.90
5631;DHT22;2837;50.990;7.124;2023-04-24T07:25:32;11.80;99.90
5631;DHT22;2837;50.990;7.124;2023-04-24T07:27:59;11.90;99.90
5631;DHT22;2837;50.990;7.124;2023-04-24T07:30:24;11.90;99.90
5631;DHT22;2837;50.990;7.124;2023-04-24T07:32:50;11.80;99.90
5631;DHT22;2837;50.990;7.124;2023-04-24T07:35:16;11.80;99.90
5631;DHT22;2837;50.990;7.124;2023-04-24T07:37:41;11.80;99.90
5631;DHT22;2837;50.990;7.124;2023-04-24T07:40:12;11.90;99.90
5631;DHT22;2837;50.990;7.124;2023-04-24T07:42:38;11.90;99.90
5631;DHT22;2837;50.990;7.124;2023-04-24T07:45:04;11.90;99.90
5631;DHT22;2837;50.990;7.124;2023-04-24T07:47:30;11.90;99.90
5631;DHT22;2837;50.990;7.124;2023-04-24T07:49:55;12.00;99.90
5631;DHT22;2837;50.990;7.124;2023-04-24T07:52:21;11.90;99.90
5631;DHT22;2837;50.990;7.124;2023-04-24T07:54:47;11.90;99.90
5631;DHT22;2837;50.990;7.124;2023-04-24T07:57:12;11.80;99.90
5631;DHT22;2837;50.990;7.124;2023-04-24T07:59:39;11.70;99.90
5631;DHT22;2837;50.990;7.124;2023-04-24T08:02:04;11.50;99.90
5631;DHT22;2837;50.990;7.124;2023-04-24T08:04:31;11.90;99.90
5631;DHT22;2837;50.990;7.124;2023-04-24T08:06:57;11.40;99.90
5631;DHT22;2837;50.990;7.124;2023-04-24T08:09:23;11.70;99.90
5631;DHT22;2837;50.990;7.124;2023-04-24T08:11:48;11.30;99.90
5631;DHT22;2837;50.990;7.124;2023-04-24T08:14:14;11.30;99.90
5631;DHT22;2837;50.990;7.124;2023-04-24T08:16:40;11.20;99.90
5631;DHT22;2837;50.990;7.124;2023-04-24T08:19:06;11.10;99.90
5631;DHT22;2837;50.990;7.124;2023-04-24T08:21:32;11.10;99.90
5631;DHT22;2837;50.990;7.124;2023-04-24T08:23:57;11.80;99.90
5631;DHT22;2837;50.990;7.124;2023-04-24T08:26:23;11.00;99.90
5631;DHT22;2837;50.990;7.124;2023-04-24T08:28:49;11.50;99.90
5631;DHT22;2837;50.990;7.124;2023-04-24T08:31:14;11.00;99.90
5631;DHT22;2837;50.990;7.124;2023-04-24T08:33:40;11.00;99.90
5631;DHT22;2837;50.990;7.124;2023-04-24T08:36:06;11.20;99.90
5631;DHT22;2837;50.990;7.124;2023-04-24T08:38:33;11.00;99.90
5631;DHT22;2837;50.990;7.124;2023-04-24T08:41:00;11.00;99.90
5631;DHT22;2837;50.990;7.124;2023-04-24T08:43:26;11.70;99.90
5631;DHT22;2837;50.990;7.124;2023-04-24T08:45:54;10.90;99.90
5631;DHT22;2837;50.990;7.124;2023-04-24T08:48:22;11.00;99.90
5631;DHT22;2837;50.990;7.124;2023-04-24T08:50:49;10.80;99.90
5631;DHT22;2837;50.990;7.124;2023-04-24T08:53:15;10.80;99.90
5631;DHT22;2837;50.990;7.124;2023-04-24T08:55:43;11.50;99.90
5631;DHT22;2837;50.990;7.124;2023-04-24T08:58:11;10.70;99.90
5631;DHT22;2837;50.990;7.124;2023-04-24T09:00:39;10.80;99.90
5631;DHT22;2837;50.990;7.124;2023-04-24T09:03:05;11.00;99.90
5631;DHT22;2837;50.990;7.124;2023-04-24T09:05:32;11.60;99.90
5631;DHT22;2837;50.990;7.124;2023-04-24T09:07:59;10.80;99.90
5631;DHT22;2837;50.990;7.124;2023-04-24T09:10:27;10.70;99.90
5631;DHT22;2837;50.990;7.124;2023-04-24T09:12:56;10.70;99.90
5631;DHT22;2837;50.990;7.124;2023-04-24T09:15:24;10.60;99.90
5631;DHT22;2837;50.990;7.124;2023-04-24T09:17:50;10.70;99.90
5631;DHT22;2837;50.990;7.124;2023-04-24T09:20:15;10.70;99.90
5631;DHT22;2837;50.990;7.124;2023-04-24T09:22:42;10.60;99.90
5631;DHT22;2837;50.990;7.124;2023-04-24T09:25:08;10.60;99.90
5631;DHT22;2837;50.990;7.124;2023-04-24T09:27:35;10.60;99.90
5631;DHT22;2837;50.990;7.124;2023-04-24T09:30:01;10.60;99.90
5631;DHT22;2837;50.990;7.124;2023-04-24T09:32:27;10.60;99.90
5631;DHT22;2837;50.990;7.124;2023-04-24T09:35:12;10.50;99.90
5631;DHT22;2837;50.990;7.124;2023-04-24T09:37:45;10.60;99.90
5631;DHT22;2837;50.990;7.124;2023-04-24T09:40:15;10.70;99.90
5631;DHT22;2837;50.990;7.124;2023-04-24T09:42:46;10.70;99.90
5631;DHT22;2837;50.990;7.124;2023-04-24T09:45:12;10.70;99.90
5631;DHT22;2837;50.990;7.124;2023-04-24T09:47:38;10.70;99.90
5631;DHT22;2837;50.990;7.124;2023-04-24T09:52:57;10.70;99.90
5631;DHT22;2837;50.990;7.124;2023-04-24T09:55:23;10.80;99.90
5631;DHT22;2837;50.990;7.124;2023-04-24T09:57:54;10.70;99.90
5631;DHT22;2837;50.990;7.124;2023-04-24T10:00:28;10.70;99.90
5631;DHT22;2837;50.990;7.124;2023-04-24T10:03:00;11.40;99.90
5631;DHT22;2837;50.990;7.124;2023-04-24T10:05:29;10.80;99.90
5631;DHT22;2837;50.990;7.124;2023-04-24T10:07:58;10.80;99.90
5631;DHT22;2837;50.990;7.124;2023-04-24T10:10:23;10.80;99.90
5631;DHT22;2837;50.990;7.124;2023-04-24T10:12:51;10.80;99.90
5631;DHT22;2837;50.990;7.124;2023-04-24T10:15:17;11.40;99.90
5631;DHT22;2837;50.990;7.124;2023-04-24T10:17:50;10.80;99.90
5631;DHT22;2837;50.990;7.124;2023-04-24T10:20:24;10.90;99.90
5631;DHT22;2837;50.990;7.124;2023-04-24T10:22:51;11.00;99.90
5631;DHT22;2837;50.990;7.124;2023-04-24T10:25:23;11.10;99.90
5631;DHT22;2837;50.990;7.124;2023-04-24T10:27:50;11.10;99.90
5631;DHT22;2837;50.990;7.124;2023-04-24T10:30:17;11.10;99.90
5631;DHT22;2837;50.990;7.124;2023-04-24T10:32:43;11.70;99.90
5631;DHT22;2837;50.990;7.124;2023-04-24T10:35:09;11.90;99.90
5631;DHT22;2837;50.990;7.124;2023-04-24T10:37:40;11.20;99.90
5631;DHT22;2837;50.990;7.124;2023-04-24T10:40:07;11.30;99.90
5631;DHT22;2837;50.990;7.124;2023-04-24T10:42:34;11.30;99.90
5631;DHT22;2837;50.990;7.124;2023-04-24T10:45:04;11.40;99.90
5631;DHT22;2837;50.990;7.124;2023-04-24T10:47:30;11.40;99.90
5631;DHT22;2837;50.990;7.124;2023-04-24T10:50:10;11.90;99.90
5631;DHT22;2837;50.990;7.124;2023-04-24T10:52:46;11.50;99.90
5631;DHT22;2837;50.990;7.124;2023-04-24T10:55:13;11.60;99.90
5631;DHT22;2837;50.990;7.124;2023-04-24T10:57:39;11.60;99.90
5631;DHT22;2837;50.990;7.124;2023-04-24T11:00:18;11.90;99.90
5631;DHT22;2837;50.990;7.124;2023-04-24T11:02:46;11.60;99.90
5631;DHT22;2837;50.990;7.124;2023-04-24T11:05:18;11.50;99.90
5631;DHT22;2837;50.990;7.124;2023-04-24T11:08:13;11.50;99.90
5631;DHT22;2837;50.990;7.124;2023-04-24T11:10:41;11.50;99.90
5631;DHT22;2837;50.990;7.124;2023-04-24T11:13:08;11.40;99.90
5631;DHT22;2837;50.990;7.124;2023-04-24T11:15:34;11.40;99.90
5631;DHT22;2837;50.990;7.124;2023-04-24T11:18:00;11.60;99.90
5631;DHT22;2837;50.990;7.124;2023-04-24T11:20:25;12.20;99.90
5631;DHT22;2837;50.990;7.124;2023-04-24T11:22:53;11.30;99.90
5631;DHT22;2837;50.990;7.124;2023-04-24T11:25:23;11.60;99.90
5631;DHT22;2837;50.990;7.124;2023-04-24T11:27:49;11.90;99.90
5631;DHT22;2837;50.990;7.124;2023-04-24T11:30:19;11.30;99.90
5631;DHT22;2837;50.990;7.124;2023-04-24T11:32:48;11.30;99.90
5631;DHT22;2837;50.990;7.124;2023-04-24T11:35:17;11.20;99.90
5631;DHT22;2837;50.990;7.124;2023-04-24T11:37:53;11.70;99.90
5631;DHT22;2837;50.990;7.124;2023-04-24T11:40:21;11.30;99.90
5631;DHT22;2837;50.990;7.124;2023-04-24T11:42:49;11.40;99.90
5631;DHT22;2837;50.990;7.124;2023-04-24T11:45:17;11.50;99.90
5631;DHT22;2837;50.990;7.124;2023-04-24T11:47:44;11.50;99.90
5631;DHT22;2837;50.990;7.124;2023-04-24T11:50:12;11.60;99.90
5631;DHT22;2837;50.990;7.124;2023-04-24T11:52:39;11.70;99.90
5631;DHT22;2837;50.990;7.124;2023-04-24T11:55:22;11.70;99.90
5631;DHT22;2837;50.990;7.124;2023-04-24T11:57:50;11.80;99.90
5631;DHT22;2837;50.990;7.124;2023-04-24T12:00:18;11.80;99.90
5631;DHT22;2837;50.990;7.124;2023-04-24T12:02:44;11.90;99.90
5631;DHT22;2837;50.990;7.124;2023-04-24T12:05:23;11.80;99.90
5631;DHT22;2837;50.990;7.124;2023-04-24T12:07:48;11.90;99.90
5631;DHT22;2837;50.990;7.124;2023-04-24T12:10:19;11.90;99.90
5631;DHT22;2837;50.990;7.124;2023-04-24T12:12:45;11.90;99.90
5631;DHT22;2837;50.990;7.124;2023-04-24T12:15:11;11.90;99.90
5631;DHT22;2837;50.990;7.124;2023-04-24T12:17:41;12.70;99.90
5631;DHT22;2837;50.990;7.124;2023-04-24T12:20:07;12.00;99.90
5631;DHT22;2837;50.990;7.124;2023-04-24T12:22:53;12.00;99.90
5631;DHT22;2837;50.990;7.124;2023-04-24T12:25:24;12.10;99.90
5631;DHT22;2837;50.990;7.124;2023-04-24T12:30:20;12.10;99.90
5631;DHT22;2837;50.990;7.124;2023-04-24T12:32:49;12.10;99.90
5631;DHT22;2837;50.990;7.124;2023-04-24T12:35:21;12.10;99.90
5631;DHT22;2837;50.990;7.124;2023-04-24T12:37:47;12.10;99.90
5631;DHT22;2837;50.990;7.124;2023-04-24T12:40:13;12.50;99.90
5631;DHT22;2837;50.990;7.124;2023-04-24T12:42:47;12.20;99.90
5631;DHT22;2837;50.990;7.124;2023-04-24T12:45:13;12.20;99.90
5631;DHT22;2837;50.990;7.124;2023-04-24T12:47:39;12.10;99.90
5631;DHT22;2837;50.990;7.124;2023-04-24T12:50:07;12.50;99.90
5631;DHT22;2837;50.990;7.124;2023-04-24T12:52:32;12.10;99.90
5631;DHT22;2837;50.990;7.124;2023-04-24T12:55:00;12.10;99.90
5631;DHT22;2837;50.990;7.124;2023-04-24T12:57:28;12.10;99.90
5631;DHT22;2837;50.990;7.124;2023-04-24T12:59:55;12.10;99.90
5631;DHT22;2837;50.990;7.124;2023-04-24T13:02:24;12.10;99.90
5631;DHT22;2837;50.990;7.124;2023-04-24T13:04:51;12.10;99.90
5631;DHT22;2837;50.990;7.124;2023-04-24T13:07:17;12.20;99.90
5631;DHT22;2837;50.990;7.124;2023-04-24T13:09:43;12.30;99.90
5631;DHT22;2837;50.990;7.124;2023-04-24T13:12:10;12.50;99.90
5631;DHT22;2837;50.990;7.124;2023-04-24T13:14:36;12.30;99.90
5631;DHT22;2837;50.990;7.124;2023-04-24T13:17:02;12.30;99.90
5631;DHT22;2837;50.990;7.124;2023-04-24T13:19:28;12.30;99.90
5631;DHT22;2837;50.990;7.124;2023-04-24T13:21:55;12.40;99.90
5631;DHT22;2837;50.990;7.124;2023-04-24T13:24:22;12.40;99.90
5631;DHT22;2837;50.990;7.124;2023-04-24T13:26:54;12.40;99.90
5631;DHT22;2837;50.990;7.124;2023-04-24T13:29:19;12.50;99.90
5631;DHT22;2837;50.990;7.124;2023-04-24T13:31:46;12.50;99.90
5631;DHT22;2837;50.990;7.124;2023-04-24T13:34:13;12.60;99.90
5631;DHT22;2837;50.990;7.124;2023-04-24T13:36:38;12.70;99.90
5631;DHT22;2837;50.990;7.124;2023-04-24T13:39:05;13.50;99.90
5631;DHT22;2837;50.990;7.124;2023-04-24T13:41:32;12.70;99.90
5631;DHT22;2837;50.990;7.124;2023-04-24T13:43:57;12.70;99.90
5631;DHT22;2837;50.990;7.124;2023-04-24T13:46:23;12.80;99.90
5631;DHT22;2837;50.990;7.124;2023-04-24T13:48:49;12.80;99.90
5631;DHT22;2837;50.990;7.124;2023-04-24T13:51:14;12.80;99.90
5631;DHT22;2837;50.990;7.124;2023-04-24T13:53:40;12.80;99.90
5631;DHT22;2837;50.990;7.124;2023-04-24T13:56:06;12.90;99.90
5631;DHT22;2837;50.990;7.124;2023-04-24T13:58:31;12.90;99.90
5631;DHT22;2837;50.990;7.124;2023-04-24T14:01:01;13.00;99.90
5631;DHT22;2837;50.990;7.124;2023-04-24T14:03:27;12.90;99.90
5631;DHT22;2837;50.990;7.124;2023-04-24T14:05:52;12.90;99.90
5631;DHT22;2837;50.990;7.124;2023-04-24T14:08:18;12.90;99.90
5631;DHT22;2837;50.990;7.124;2023-04-24T14:10:43;13.20;99.90
5631;DHT22;2837;50.990;7.124;2023-04-24T14:13:09;12.80;99.90
5631;DHT22;2837;50.990;7.124;2023-04-24T14:15:35;12.80;99.90
5631;DHT22;2837;50.990;7.124;2023-04-24T14:18:01;13.50;99.90
5631;DHT22;2837;50.990;7.124;2023-04-24T14:20:27;12.70;99.90
5631;DHT22;2837;50.990;7.124;2023-04-24T14:22:52;12.70;99.90
5631;DHT22;2837;50.990;7.124;2023-04-24T14:25:18;12.80;99.90
5631;DHT22;2837;50.990;7.124;2023-04-24T14:27:44;12.80;99.90
5631;DHT22;2837;50.990;7.124;2023-04-24T14:30:11;13.30;99.90
5631;DHT22;2837;50.990;7.124;2023-04-24T14:32:38;12.90;99.90
5631;DHT22;2837;50.990;7.124;2023-04-24T14:35:05;12.90;99.90
5631;DHT22;2837;50.990;7.124;2023-04-24T14:37:31;13.00;99.90
5631;DHT22;2837;50.990;7.124;2023-04-24T14:39:57;13.70;99.90
5631;DHT22;2837;50.990;7.124;2023-04-24T14:42:22;14.50;99.90
5631;DHT22;2837;50.990;7.124;2023-04-24T14:44:48;13.10;99.90
5631;DHT22;2837;50.990;7.124;2023-04-24T14:47:13;14.20;99.90
5631;DHT22;2837;50.990;7.124;2023-04-24T14:49:39;13.70;99.90
5631;DHT22;2837;50.990;7.124;2023-04-24T14:52:05;13.00;99.90
5631;DHT22;2837;50.990;7.124;2023-04-24T14:54:30;13.30;99.90
5631;DHT22;2837;50.990;7.124;2023-04-24T14:56:56;13.00;99.90
5631;DHT22;2837;50.990;7.124;2023-04-24T14:59:24;13.40;99.90
5631;DHT22;2837;50.990;7.124;2023-04-24T15:01:50;13.10;99.90
5631;DHT22;2837;50.990;7.124;2023-04-24T15:04:18;13.60;99.90
5631;DHT22;2837;50.990;7.124;2023-04-24T15:06:43;13.90;99.90
5631;DHT22;2837;50.990;7.124;2023-04-24T15:09:09;13.70;99.90
5631;DHT22;2837;50.990;7.124;2023-04-24T15:11:35;14.00;99.90
5631;DHT22;2837;50.990;7.124;2023-04-24T15:14:00;13.30;99.90
5631;DHT22;2837;50.990;7.124;2023-04-24T15:16:26;13.20;99.90
5631;DHT22;2837;50.990;7.124;2023-04-24T15:18:51;13.20;99.90
5631;DHT22;2837;50.990;7.124;2023-04-24T15:21:17;13.10;99.90
5631;DHT22;2837;50.990;7.124;2023-04-24T15:23:43;13.20;99.90
5631;DHT22;2837;50.990;7.124;2023-04-24T15:26:08;13.90;99.90
5631;DHT22;2837;50.990;7.124;2023-04-24T15:28:34;13.40;99.90
5631;DHT22;2837;50.990;7.124;2023-04-24T15:30:59;13.30;99.90
5631;DHT22;2837;50.990;7.124;2023-04-24T15:33:25;14.10;99.90
5631;DHT22;2837;50.990;7.124;2023-04-24T15:35:51;13.20;99.90
5631;DHT22;2837;50.990;7.124;2023-04-24T15:38:16;13.20;99.90
5631;DHT22;2837;50.990;7.124;2023-04-24T15:40:42;13.20;99.90
5631;DHT22;2837;50.990;7.124;2023-04-24T15:43:07;13.40;99.90
5631;DHT22;2837;50.990;7.124;2023-04-24T15:45:33;14.00;99.90
5631;DHT22;2837;50.990;7.124;2023-04-24T15:47:58;13.10;99.90
5631;DHT22;2837;50.990;7.124;2023-04-24T15:50:25;13.20;99.90
5631;DHT22;2837;50.990;7.124;2023-04-24T15:52:51;13.10;99.90
5631;DHT22;2837;50.990;7.124;2023-04-24T15:55:17;13.10;99.90
5631;DHT22;2837;50.990;7.124;2023-04-24T15:57:42;13.10;99.90
5631;DHT22;2837;50.990;7.124;2023-04-24T16:00:08;13.10;99.90
5631;DHT22;2837;50.990;7.124;2023-04-24T16:02:35;13.10;99.90
5631;DHT22;2837;50.990;7.124;2023-04-24T16:05:00;13.10;99.90
5631;DHT22;2837;50.990;7.124;2023-04-24T16:07:26;13.10;99.90
5631;DHT22;2837;50.990;7.124;2023-04-24T16:09:51;13.60;99.90
5631;DHT22;2837;50.990;7.124;2023-04-24T16:12:17;13.70;99.90
5631;DHT22;2837;50.990;7.124;2023-04-24T16:14:43;13.10;99.90
5631;DHT22;2837;50.990;7.124;2023-04-24T16:17:09;13.10;99.90
5631;DHT22;2837;50.990;7.124;2023-04-24T16:19:34;13.10;99.90
5631;DHT22;2837;50.990;7.124;2023-04-24T16:22:00;13.10;99.90
5631;DHT22;2837;50.990;7.124;2023-04-24T16:24:27;13.00;99.90
5631;DHT22;2837;50.990;7.124;2023-04-24T16:26:54;13.00;99.90
5631;DHT22;2837;50.990;7.124;2023-04-24T16:29:21;13.00;99.90
5631;DHT22;2837;50.990;7.124;2023-04-24T16:31:47;13.00;99.90
5631;DHT22;2837;50.990;7.124;2023-04-24T16:34:12;13.00;99.90
5631;DHT22;2837;50.990;7.124;2023-04-24T16:36:38;13.60;99.90
5631;DHT22;2837;50.990;7.124;2023-04-24T16:39:04;13.70;99.90
5631;DHT22;2837;50.990;7.124;2023-04-24T16:41:32;13.00;99.90
5631;DHT22;2837;50.990;7.124;2023-04-24T16:43:58;13.40;99.90
5631;DHT22;2837;50.990;7.124;2023-04-24T16:46:24;13.60;99.90
5631;DHT22;2837;50.990;7.124;2023-04-24T16:48:50;13.00;99.90
5631;DHT22;2837;50.990;7.124;2023-04-24T16:51:16;13.50;99.90
5631;DHT22;2837;50.990;7.124;2023-04-24T16:53:41;13.00;99.90
5631;DHT22;2837;50.990;7.124;2023-04-24T16:56:07;13.00;99.90
5631;DHT22;2837;50.990;7.124;2023-04-24T16:58:32;13.90;99.90
5631;DHT22;2837;50.990;7.124;2023-04-24T17:00:58;13.30;99.90
5631;DHT22;2837;50.990;7.124;2023-04-24T17:03:24;13.10;99.90
5631;DHT22;2837;50.990;7.124;2023-04-24T17:05:49;13.00;99.90
5631;DHT22;2837;50.990;7.124;2023-04-24T17:08:15;13.00;99.90
5631;DHT22;2837;50.990;7.124;2023-04-24T17:10:41;13.00;99.90
5631;DHT22;2837;50.990;7.124;2023-04-24T17:13:07;13.00;99.90
5631;DHT22;2837;50.990;7.124;2023-04-24T17:15:32;13.80;99.90
5631;DHT22;2837;50.990;7.124;2023-04-24T17:17:59;13.00;99.90
5631;DHT22;2837;50.990;7.124;2023-04-24T17:20:25;13.90;99.90
5631;DHT22;2837;50.990;7.124;2023-04-24T17:22:51;12.90;99.90
5631;DHT22;2837;50.990;7.124;2023-04-24T17:25:17;13.00;99.90
5631;DHT22;2837;50.990;7.124;2023-04-24T17:27:43;13.20;99.90
5631;DHT22;2837;50.990;7.124;2023-04-24T17:30:09;13.10;99.90
5631;DHT22;2837;50.990;7.124;2023-04-24T17:32:35;13.00;99.90
5631;DHT22;2837;50.990;7.124;2023-04-24T17:35:00;13.00;99.90
5631;DHT22;2837;50.990;7.124;2023-04-24T17:37:26;12.90;99.90
5631;DHT22;2837;50.990;7.124;2023-04-24T17:39:52;12.90;99.90
5631;DHT22;2837;50.990;7.124;2023-04-24T17:42:17;12.80;99.90
5631;DHT22;2837;50.990;7.124;2023-04-24T17:44:43;12.80;99.90
5631;DHT22;2837;50.990;7.124;2023-04-24T17:47:08;12.80;99.90
5631;DHT22;2837;50.990;7.124;2023-04-24T17:49:34;12.90;99.90
5631;DHT22;2837;50.990;7.124;2023-04-24T17:52:03;12.90;99.90
5631;DHT22;2837;50.990;7.124;2023-04-24T17:54:28;12.80;99.90
5631;DHT22;2837;50.990;7.124;2023-04-24T17:56:54;12.80;99.90
5631;DHT22;2837;50.990;7.124;2023-04-24T17:59:20;12.80;99.90
5631;DHT22;2837;50.990;7.124;2023-04-24T18:01:46;12.70;99.90
5631;DHT22;2837;50.990;7.124;2023-04-24T18:04:12;12.70;99.90
5631;DHT22;2837;50.990;7.124;2023-04-24T18:06:37;12.70;99.90
5631;DHT22;2837;50.990;7.124;2023-04-24T18:09:03;12.60;99.90
5631;DHT22;2837;50.990;7.124;2023-04-24T18:11:29;12.60;99.90
5631;DHT22;2837;50.990;7.124;2023-04-24T18:13:55;12.60;99.90
5631;DHT22;2837;50.990;7.124;2023-04-24T18:16:20;12.60;99.90
5631;DHT22;2837;50.990;7.124;2023-04-24T18:18:46;12.60;99.90
5631;DHT22;2837;50.990;7.124;2023-04-24T18:21:12;12.70;99.90
5631;DHT22;2837;50.990;7.124;2023-04-24T18:23:37;13.30;99.90
5631;DHT22;2837;50.990;7.124;2023-04-24T18:26:03;12.50;99.90
5631;DHT22;2837;50.990;7.124;2023-04-24T18:28:28;12.40;99.90
5631;DHT22;2837;50.990;7.124;2023-04-24T18:30:56;12.50;99.90
5631;DHT22;2837;50.990;7.124;2023-04-24T18:33:23;12.40;99.90
5631;DHT22;2837;50.990;7.124;2023-04-24T18:35:48;12.60;99.90
5631;DHT22;2837;50.990;7.124;2023-04-24T18:38:14;12.30;99.90
5631;DHT22;2837;50.990;7.124;2023-04-24T18:40:39;12.50;99.90
5631;DHT22;2837;50.990;7.124;2023-04-24T18:43:05;12.60;99.90
5631;DHT22;2837;50.990;7.124;2023-04-24T18:45:31;12.30;99.90
5631;DHT22;2837;50.990;7.124;2023-04-24T18:47:56;12.30;99.90
5631;DHT22;2837;50.990;7.124;2023-04-24T18:50:22;12.60;99.90
5631;DHT22;2837;50.990;7.124;2023-04-24T18:52:50;12.20;99.90
5631;DHT22;2837;50.990;7.124;2023-04-24T18:55:15;12.20;99.90
5631;DHT22;2837;50.990;7.124;2023-04-24T18:57:41;12.20;99.90
5631;DHT22;2837;50.990;7.124;2023-04-24T19:00:07;12.10;99.90
5631;DHT22;2837;50.990;7.124;2023-04-24T19:02:33;12.00;99.90
5631;DHT22;2837;50.990;7.124;2023-04-24T19:04:59;12.00;99.90
5631;DHT22;2837;50.990;7.124;2023-04-24T19:07:24;12.00;99.90
5631;DHT22;2837;50.990;7.124;2023-04-24T19:09:50;12.00;99.90
5631;DHT22;2837;50.990;7.124;2023-04-24T19:12:16;11.90;99.90
5631;DHT22;2837;50.990;7.124;2023-04-24T19:14:41;11.90;99.90
5631;DHT22;2837;50.990;7.124;2023-04-24T19:17:07;11.80;99.90
5631;DHT22;2837;50.990;7.124;2023-04-24T19:19:34;11.80;99.90
5631;DHT22;2837;50.990;7.124;2023-04-24T19:22:00;11.80;99.90
5631;DHT22;2837;50.990;7.124;2023-04-24T19:24:26;11.80;99.90
5631;DHT22;2837;50.990;7.124;2023-04-24T19:26:53;11.70;99.90
5631;DHT22;2837;50.990;7.124;2023-04-24T19:29:20;11.70;99.90
5631;DHT22;2837;50.990;7.124;2023-04-24T19:31:45;11.70;99.90
5631;DHT22;2837;50.990;7.124;2023-04-24T19:34:11;11.70;99.90
5631;DHT22;2837;50.990;7.124;2023-04-24T19:36:36;12.50;99.90
5631;DHT22;2837;50.990;7.124;2023-04-24T19:39:02;11.70;99.90
5631;DHT22;2837;50.990;7.124;2023-04-24T19:41:28;11.50;99.90
5631;DHT22;2837;50.990;7.124;2023-04-24T19:43:53;11.50;99.90
5631;DHT22;2837;50.990;7.124;2023-04-24T19:46:19;11.50;99.90
5631;DHT22;2837;50.990;7.124;2023-04-24T19:48:45;11.40;99.90
5631;DHT22;2837;50.990;7.124;2023-04-24T19:51:10;11.40;99.90
5631;DHT22;2837;50.990;7.124;2023-04-24T19:53:36;11.40;99.90
5631;DHT22;2837;50.990;7.124;2023-04-24T19:56:01;11.40;99.90
5631;DHT22;2837;50.990;7.124;2023-04-24T19:58:27;11.40;99.90
5631;DHT22;2837;50.990;7.124;2023-04-24T20:00:55;11.40;99.90
5631;DHT22;2837;50.990;7.124;2023-04-24T20:03:21;11.40;99.90
5631;DHT22;2837;50.990;7.124;2023-04-24T20:05:47;11.40;99.90
5631;DHT22;2837;50.990;7.124;2023-04-24T20:08:12;11.80;99.90
5631;DHT22;2837;50.990;7.124;2023-04-24T20:10:38;11.30;99.90
5631;DHT22;2837;50.990;7.124;2023-04-24T20:13:03;12.00;99.90
5631;DHT22;2837;50.990;7.124;2023-04-24T20:15:29;11.30;99.90
5631;DHT22;2837;50.990;7.124;2023-04-24T20:17:57;11.40;99.90
5631;DHT22;2837;50.990;7.124;2023-04-24T20:20:23;11.40;99.90
5631;DHT22;2837;50.990;7.124;2023-04-24T20:22:48;11.40;99.90
5631;DHT22;2837;50.990;7.124;2023-04-24T20:25:14;11.30;99.90
5631;DHT22;2837;50.990;7.124;2023-04-24T20:27:40;11.40;99.90
5631;DHT22;2837;50.990;7.124;2023-04-24T20:30:06;11.30;99.90
5631;DHT22;2837;50.990;7.124;2023-04-24T20:32:40;11.40;99.90
5631;DHT22;2837;50.990;7.124;2023-04-24T20:35:05;11.30;99.90
5631;DHT22;2837;50.990;7.124;2023-04-24T20:37:31;11.30;99.90
5631;DHT22;2837;50.990;7.124;2023-04-24T20:39:56;11.40;99.90
5631;DHT22;2837;50.990;7.124;2023-04-24T20:42:24;11.30;99.90
5631;DHT22;2837;50.990;7.124;2023-04-24T20:44:50;11.30;99.90
5631;DHT22;2837;50.990;7.124;2023-04-24T20:47:15;11.20;99.90
5631;DHT22;2837;50.990;7.124;2023-04-24T20:49:41;11.30;99.90
5631;DHT22;2837;50.990;7.124;2023-04-24T20:52:07;11.20;99.90
5631;DHT22;2837;50.990;7.124;2023-04-24T20:54:32;11.20;99.90
5631;DHT22;2837;50.990;7.124;2023-04-24T20:56:58;11.20;99.90
5631;DHT22;2837;50.990;7.124;2023-04-24T20:59:24;11.20;99.90
